Time;durP1;ratioP1;P1;durP2;ratioP2;P2;SDS_P1;SDS_P2;PMS_P1;PMS_P2;Temp;Humidity;BMP_temperature;BMP_pressure;BME280_temperature;BME280_humidity;BME280_pressure;Samples;Min_cycle;Max_cycle;Signal;HPM_P1;HPM_P2
2021/10/14 00:02:09;;;;;;;;;14.75;12.00;;;;;20.87;42.40;102459.16;5016497;28;51121;-52
2021/10/14 00:04:35;;;;;;;;;11.00;9.75;;;;;20.88;42.61;102460.03;5008325;28;51057;-49
2021/10/14 00:07:00;;;;;;;;;12.50;12.00;;;;;20.86;42.71;102456.59;5005400;28;51145;-49
2021/10/14 00:09:25;;;;;;;;;15.25;12.25;;;;;20.86;42.60;102457.47;5007725;28;51030;-52
2021/10/14 00:11:51;;;;;;;;;13.25;13.25;;;;;20.86;42.35;102453.84;4996341;28;51166;-50
2021/10/14 00:14:16;;;;;;;;;12.25;9.75;;;;;20.85;42.36;102461.25;4996720;28;51015;-49
2021/10/14 00:16:41;;;;;;;;;15.50;12.50;;;;;20.85;42.41;102453.00;5003328;28;50995;-48
2021/10/14 00:19:07;;;;;;;;;14.75;11.00;;;;;20.85;42.47;102460.41;5015708;28;51100;-51
2021/10/14 00:21:33;;;;;;;;;13.75;13.00;;;;;20.85;42.51;102457.66;5016114;28;51163;-52
2021/10/14 00:23:58;;;;;;;;;14.50;13.25;;;;;20.85;42.65;102457.66;5016484;28;51068;-51
2021/10/14 00:26:23;;;;;;;;;11.00;10.75;;;;;20.85;42.89;102463.16;5010428;28;51047;-51
2021/10/14 00:28:48;;;;;;;;;13.50;12.50;;;;;20.84;42.73;102465.06;4996061;28;50997;-52
2021/10/14 00:31:14;;;;;;;;;15.00;14.50;;;;;20.83;42.52;102457.81;5003284;28;51060;-50
2021/10/14 00:33:39;;;;;;;;;15.75;12.50;;;;;20.84;42.70;102455.91;5016195;28;51043;-49
2021/10/14 00:36:05;;;;;;;;;13.25;12.75;;;;;20.84;42.74;102464.16;5013609;28;51868;-48
2021/10/14 00:38:31;;;;;;;;;11.50;10.75;;;;;20.83;42.69;102465.22;4995883;28;51102;-49
2021/10/14 00:40:56;;;;;;;;;17.75;16.00;;;;;20.84;42.90;102466.91;4996367;28;51197;-48
2021/10/14 00:43:22;;;;;;;;;15.00;14.00;;;;;20.82;42.62;102458.84;4996298;28;51323;-49
2021/10/14 00:45:47;;;;;;;;;14.00;12.50;;;;;20.82;42.81;102460.75;4995649;28;51192;-51
2021/10/14 00:48:12;;;;;;;;;17.25;15.25;;;;;20.82;42.65;102461.59;5014674;28;51070;-47
2021/10/14 00:50:38;;;;;;;;;13.75;13.25;;;;;20.82;42.68;102458.00;5011347;28;51113;-50
2021/10/14 00:53:05;;;;;;;;;13.75;13.00;;;;;20.82;42.73;102460.75;4996633;28;51361;-48
2021/10/14 00:55:31;;;;;;;;;15.00;15.00;;;;;20.81;42.54;102461.78;4989951;28;52761;-51
2021/10/14 00:57:56;;;;;;;;;16.25;14.75;;;;;20.80;43.03;102454.56;5013930;28;51312;-48
2021/10/14 01:00:22;;;;;;;;;15.00;14.25;;;;;20.81;42.87;102459.91;5012391;28;51192;-49
2021/10/14 01:02:47;;;;;;;;;16.00;15.00;;;;;20.80;42.71;102451.81;4994601;28;51136;-48
2021/10/14 01:05:13;;;;;;;;;15.75;14.25;;;;;20.80;42.39;102449.06;4994518;28;51763;-47
2021/10/14 01:07:39;;;;;;;;;15.00;12.50;;;;;20.79;43.17;102445.47;4994244;28;50948;-47
2021/10/14 01:10:05;;;;;;;;;13.75;13.75;;;;;20.80;42.62;102440.81;4994388;28;51312;-50
2021/10/14 01:12:31;;;;;;;;;15.00;14.50;;;;;20.79;42.66;102442.72;5013175;28;51403;-49
2021/10/14 01:14:57;;;;;;;;;14.00;13.00;;;;;20.80;42.31;102440.81;5002775;28;51009;-48
2021/10/14 01:17:22;;;;;;;;;15.00;12.75;;;;;20.79;42.82;102433.59;4994196;28;50964;-48
2021/10/14 01:19:48;;;;;;;;;16.25;15.00;;;;;20.78;42.81;102435.50;4998185;28;51095;-48
2021/10/14 01:22:13;;;;;;;;;14.25;12.50;;;;;20.78;42.41;102432.72;5014736;28;51364;-47
2021/10/14 01:24:39;;;;;;;;;16.00;15.00;;;;;20.78;42.83;102432.72;5018015;28;51176;-49
2021/10/14 01:27:06;;;;;;;;;16.75;14.25;;;;;20.78;42.65;102435.50;5007176;28;51083;-46
2021/10/14 01:29:32;;;;;;;;;14.50;13.75;;;;;20.78;42.49;102438.25;4998215;28;51098;-51
2021/10/14 01:31:59;;;;;;;;;14.50;14.00;;;;;20.77;42.74;102433.78;5012541;28;51288;-51
2021/10/14 01:34:24;;;;;;;;;19.50;15.00;;;;;20.77;42.51;102435.69;5017636;28;51116;-51
2021/10/14 01:36:49;;;;;;;;;16.75;14.50;;;;;20.77;42.54;102433.78;5017831;28;51027;-51
2021/10/14 01:39:15;;;;;;;;;16.00;13.75;;;;;20.76;42.74;102432.06;5017820;28;51240;-47
2021/10/14 01:41:45;;;;;;;;;18.25;15.00;;;;;20.74;42.51;102421.25;5005741;28;50919;-52
2021/10/14 01:44:10;;;;;;;;;12.00;12.00;;;;;20.75;42.76;102422.97;4997748;28;51899;-49
2021/10/14 01:46:35;;;;;;;;;17.00;15.25;;;;;20.75;42.60;102419.34;4998094;28;51461;-49
2021/10/14 01:49:01;;;;;;;;;17.25;15.75;;;;;20.74;42.63;102421.25;4997646;28;51206;-53
2021/10/14 01:51:26;;;;;;;;;19.25;15.25;;;;;20.75;42.96;102419.34;4998069;28;51049;-49
2021/10/14 01:53:51;;;;;;;;;16.25;15.50;;;;;20.75;42.56;102419.34;4969236;28;1140840;-50
2021/10/14 01:56:17;;;;;;;;;18.25;16.75;;;;;20.74;42.54;102424.00;4999020;28;51022;-46
2021/10/14 01:58:42;;;;;;;;;16.50;14.50;;;;;20.75;42.82;102422.09;4998788;28;51173;-49
2021/10/14 02:01:07;;;;;;;;;19.75;18.75;;;;;20.74;42.52;102415.75;5007961;28;51242;-48
2021/10/14 02:03:33;;;;;;;;;14.25;13.75;;;;;20.74;42.73;102417.63;5000351;28;51740;-51
2021/10/14 02:05:58;;;;;;;;;17.25;16.25;;;;;20.74;42.68;102412.13;5017945;28;51134;-50
2021/10/14 02:08:23;;;;;;;;;17.00;13.50;;;;;20.74;42.66;102412.13;5008051;28;51178;-48
2021/10/14 02:10:49;;;;;;;;;19.75;17.00;;;;;20.74;42.63;102409.38;5008575;28;51115;-52
2021/10/14 02:13:14;;;;;;;;;18.50;14.25;;;;;20.73;42.84;102413.16;5001134;28;51852;-47
2021/10/14 02:15:40;;;;;;;;;15.50;14.75;;;;;20.73;42.91;102405.75;5015343;28;51043;-51
2021/10/14 02:18:05;;;;;;;;;20.25;16.00;;;;;20.72;42.64;102409.53;4998296;28;51086;-51
2021/10/14 02:20:31;;;;;;;;;22.00;15.75;;;;;20.72;43.10;102406.78;4998825;28;51123;-51
2021/10/14 02:22:57;;;;;;;;;15.00;12.25;;;;;20.72;42.71;102403.16;4997945;28;51164;-49
2021/10/14 02:25:22;;;;;;;;;17.50;15.25;;;;;20.73;42.53;102402.13;5009979;28;51117;-50
2021/10/14 02:27:47;;;;;;;;;16.50;16.50;;;;;20.72;43.05;102400.41;5013932;28;51223;-49
2021/10/14 02:30:13;;;;;;;;;16.00;15.75;;;;;20.71;43.00;102402.31;5017847;28;51032;-51
2021/10/14 02:32:39;;;;;;;;;15.75;15.00;;;;;20.72;42.90;102405.94;4998785;28;51300;-50
2021/10/14 02:35:06;;;;;;;;;19.25;17.50;;;;;20.71;43.10;102399.56;4998866;28;51131;-50
2021/10/14 02:37:32;;;;;;;;;18.75;17.50;;;;;20.71;43.04;102398.72;4998210;28;51150;-52
2021/10/14 02:39:58;;;;;;;;;17.25;16.50;;;;;20.71;43.24;102399.56;5017695;28;51119;-48
2021/10/14 02:42:23;;;;;;;;;19.25;16.75;;;;;20.70;42.96;102392.34;5016565;28;51964;-49
2021/10/14 02:44:48;;;;;;;;;15.00;13.25;;;;;20.70;42.53;102394.25;5017219;28;51308;-47
2021/10/14 02:47:14;;;;;;;;;15.25;15.00;;;;;20.70;42.79;102397.84;5017611;28;51055;-50
2021/10/14 02:49:39;;;;;;;;;15.00;14.25;;;;;20.70;42.99;102399.75;5017756;28;50979;-53
2021/10/14 02:52:05;;;;;;;;;18.00;16.00;;;;;20.70;42.94;102394.25;5002983;28;51032;-50
2021/10/14 02:54:31;;;;;;;;;18.50;15.50;;;;;20.69;42.92;102398.06;5010147;28;50915;-50
2021/10/14 02:56:56;;;;;;;;;18.00;16.75;;;;;20.69;42.91;102404.41;5017592;28;51127;-48
2021/10/14 02:59:21;;;;;;;;;16.00;15.00;;;;;20.69;43.13;102400.81;5010142;28;50919;-48
2021/10/14 03:01:47;;;;;;;;;16.25;16.00;;;;;20.69;42.67;102393.41;4997683;28;51066;-48
2021/10/14 03:04:12;;;;;;;;;16.25;14.50;;;;;20.68;42.88;102388.94;4997413;28;51095;-53
2021/10/14 03:06:37;;;;;;;;;17.75;17.25;;;;;20.68;43.11;102388.94;4997826;28;51035;-52
2021/10/14 03:09:03;;;;;;;;;15.50;14.00;;;;;20.68;42.86;102396.34;4997939;28;51330;-48
2021/10/14 03:11:29;;;;;;;;;16.75;15.00;;;;;20.67;42.87;102398.25;4997628;28;52012;-48
2021/10/14 03:13:55;;;;;;;;;17.75;16.75;;;;;20.67;42.89;102398.25;4997772;28;51765;-48
2021/10/14 03:16:20;;;;;;;;;15.75;14.50;;;;;20.67;42.83;102392.72;4997479;28;51191;-50
2021/10/14 03:18:45;;;;;;;;;19.75;17.25;;;;;20.68;42.64;102388.06;4997518;28;51079;-50
2021/10/14 03:21:11;;;;;;;;;19.00;16.75;;;;;20.67;43.24;102395.50;4997958;28;51245;-51
2021/10/14 03:23:37;;;;;;;;;15.50;15.50;;;;;20.67;43.10;102391.88;4997484;28;51071;-49
2021/10/14 03:26:04;;;;;;;;;16.00;16.00;;;;;20.67;43.10;102392.72;4997481;28;51401;-53
2021/10/14 03:28:30;;;;;;;;;18.50;18.00;;;;;20.68;42.88;102394.44;4997134;28;51186;-51
2021/10/14 03:30:56;;;;;;;;;25.50;19.00;;;;;20.67;42.94;102397.38;5000057;28;51852;-52
2021/10/14 03:33:22;;;;;;;;;14.50;14.50;;;;;20.67;43.24;102409.25;5017002;28;50951;-51
2021/10/14 03:35:47;;;;;;;;;20.75;19.00;;;;;20.66;42.94;102402.03;5017192;28;51119;-52
2021/10/14 03:38:12;;;;;;;;;17.50;16.75;;;;;20.66;43.10;102401.19;5017179;28;51139;-52
2021/10/14 03:40:38;;;;;;;;;17.50;15.25;;;;;20.66;42.99;102407.53;5015498;28;51901;-49
2021/10/14 03:43:03;;;;;;;;;19.75;17.25;;;;;20.66;43.06;102404.78;5016794;28;51031;-48
2021/10/14 03:45:29;;;;;;;;;18.25;15.75;;;;;20.66;43.28;102414.94;5016996;28;51037;-51
2021/10/14 03:47:54;;;;;;;;;16.75;16.75;;;;;20.66;42.94;102410.31;5010017;28;51032;-51
2021/10/14 03:50:19;;;;;;;;;23.00;21.25;;;;;20.65;42.97;102411.34;4998306;28;51270;-52
2021/10/14 03:52:45;;;;;;;;;20.00;18.75;;;;;20.66;42.90;102410.31;5016371;28;51165;-50
2021/10/14 03:55:10;;;;;;;;;19.50;18.25;;;;;20.66;42.99;102407.53;5016808;28;51057;-51
2021/10/14 03:57:36;;;;;;;;;21.75;16.50;;;;;20.65;42.94;102408.59;5016923;28;51204;-50
2021/10/14 04:00:01;;;;;;;;;20.50;18.50;;;;;20.66;43.03;102413.06;5016512;28;51198;-48
2021/10/14 04:02:27;;;;;;;;;20.50;18.25;;;;;20.65;42.78;102411.34;4997547;28;51110;-53
2021/10/14 04:04:52;;;;;;;;;17.50;15.25;;;;;20.65;43.19;102411.34;4996616;28;51130;-51
2021/10/14 04:07:17;;;;;;;;;19.00;16.25;;;;;20.66;43.23;102412.19;4996955;28;51133;-52
2021/10/14 04:09:43;;;;;;;;;21.50;19.75;;;;;20.65;42.72;102410.50;5012760;28;51246;-50
2021/10/14 04:12:08;;;;;;;;;21.25;19.00;;;;;20.64;42.81;102409.63;5011914;28;50951;-52
2021/10/14 04:14:33;;;;;;;;;16.25;16.25;;;;;20.63;43.17;102407.91;5016485;28;51092;-51
2021/10/14 04:16:59;;;;;;;;;20.00;16.75;;;;;20.64;43.20;102412.38;5006099;28;51424;-48
2021/10/14 04:19:24;;;;;;;;;14.75;14.75;;;;;20.64;42.99;102411.53;4999687;28;51666;-52
2021/10/14 04:21:50;;;;;;;;;22.75;18.75;;;;;20.64;43.10;102412.38;5014510;28;50945;-48
2021/10/14 04:24:16;;;;;;;;;16.75;16.75;;;;;20.64;43.08;102412.38;5014152;28;51324;-51
2021/10/14 04:26:41;;;;;;;;;17.25;16.00;;;;;20.64;42.71;102417.91;5005204;28;51194;-51
2021/10/14 04:29:07;;;;;;;;;20.75;18.25;;;;;20.63;43.11;102416.16;5015923;28;50994;-51
2021/10/14 04:31:34;;;;;;;;;19.75;17.25;;;;;20.63;43.22;102413.41;5014889;28;51066;-49
2021/10/14 04:33:59;;;;;;;;;19.25;15.25;;;;;20.64;43.00;102417.03;4998215;28;51006;-52
2021/10/14 04:36:25;;;;;;;;;21.25;19.50;;;;;20.64;42.94;102417.91;5014498;28;51186;-48
2021/10/14 04:38:50;;;;;;;;;18.00;16.00;;;;;20.64;42.80;102414.28;5006115;28;52655;-46
2021/10/14 04:41:16;;;;;;;;;16.75;14.25;;;;;20.64;43.01;102408.78;5003265;28;51123;-48
2021/10/14 04:43:41;;;;;;;;;17.00;16.50;;;;;20.63;42.67;102413.41;5015216;28;51315;-49
2021/10/14 04:46:07;;;;;;;;;16.25;15.25;;;;;20.63;43.08;102409.78;5014912;28;51119;-50
2021/10/14 04:48:32;;;;;;;;;18.50;17.00;;;;;20.63;42.97;102418.91;5015139;28;52775;-50
2021/10/14 04:50:58;;;;;;;;;18.50;18.25;;;;;20.62;42.82;102419.09;5015030;28;51190;-50
2021/10/14 04:53:23;;;;;;;;;21.00;16.50;;;;;20.62;43.10;102421.84;5015375;28;50967;-49
2021/10/14 04:55:48;;;;;;;;;17.25;15.75;;;;;20.63;42.82;102418.91;5008159;28;51263;-48
2021/10/14 04:58:14;;;;;;;;;17.25;16.25;;;;;20.62;42.82;102421.84;4995444;28;50935;-49
2021/10/14 05:00:39;;;;;;;;;20.75;17.75;;;;;20.62;43.12;102416.34;5001223;28;51059;-51
2021/10/14 05:03:04;;;;;;;;;16.00;14.50;;;;;20.61;43.04;102415.50;5015421;28;51307;-50
2021/10/14 05:05:30;;;;;;;;;19.25;19.00;;;;;20.61;43.26;102418.25;5016090;28;50975;-49
2021/10/14 05:07:55;;;;;;;;;16.25;13.75;;;;;20.61;43.24;102409.13;5015296;28;51244;-52
2021/10/14 05:10:21;;;;;;;;;19.00;17.25;;;;;20.61;43.05;102417.38;5015254;28;51035;-51
2021/10/14 05:12:46;;;;;;;;;20.75;19.25;;;;;20.61;42.75;102418.25;5007254;28;51352;-48
2021/10/14 05:15:11;;;;;;;;;17.00;16.50;;;;;20.60;43.19;102412.94;4996255;28;51041;-53
2021/10/14 05:17:37;;;;;;;;;22.00;18.50;;;;;20.60;42.69;102413.78;5001273;28;51993;-51
2021/10/14 05:20:05;;;;;;;;;20.00;17.25;;;;;20.61;42.74;102421.00;4997880;28;51159;-53
2021/10/14 05:22:31;;;;;;;;;16.50;15.25;;;;;20.60;43.39;102422.03;4995470;28;51054;-54
2021/10/14 05:24:56;;;;;;;;;17.50;16.25;;;;;20.60;43.11;102413.78;5003673;28;51265;-53
2021/10/14 05:27:21;;;;;;;;;15.50;15.00;;;;;20.62;43.13;102422.72;5003912;28;51789;-51
2021/10/14 05:29:47;;;;;;;;;19.25;18.00;;;;;20.62;42.86;102425.47;5005543;28;51123;-48
2021/10/14 05:32:12;;;;;;;;;19.00;17.75;;;;;20.64;43.07;102425.31;5001777;28;51269;-54
2021/10/14 05:34:38;;;;;;;;;17.75;16.75;;;;;20.62;43.20;102425.47;4995472;28;51145;-52
2021/10/14 05:37:04;;;;;;;;;17.00;15.50;;;;;20.64;43.27;102428.06;5009181;28;51008;-54
2021/10/14 05:39:29;;;;;;;;;23.00;19.00;;;;;20.63;42.90;102432.69;5014315;28;50999;-52
2021/10/14 05:41:54;;;;;;;;;18.50;16.75;;;;;20.63;43.42;102431.81;5014234;28;51254;-53
2021/10/14 05:44:20;;;;;;;;;19.00;16.25;;;;;20.63;42.98;102426.31;5012578;28;51185;-52
2021/10/14 05:46:45;;;;;;;;;19.25;15.50;;;;;20.61;43.14;102423.75;5005225;28;51666;-51
2021/10/14 05:49:11;;;;;;;;;16.75;16.75;;;;;20.63;43.09;102429.06;4980015;28;51042;-54
2021/10/14 05:51:37;;;;;;;;;22.25;17.00;;;;;20.61;43.15;102423.75;4995075;28;50968;-52
2021/10/14 05:54:02;;;;;;;;;15.75;14.75;;;;;20.61;43.02;102423.75;5001051;28;51064;-55
2021/10/14 05:56:28;;;;;;;;;17.25;15.25;;;;;20.62;42.97;102421.84;5012993;28;52026;-52
2021/10/14 05:58:53;;;;;;;;;18.75;17.50;;;;;20.61;43.04;102421.00;5014506;28;51799;-54
2021/10/14 06:01:19;;;;;;;;;20.25;18.25;;;;;20.61;43.53;102417.38;4999665;28;51090;-54
2021/10/14 06:03:45;;;;;;;;;21.00;17.00;;;;;20.62;43.18;102416.34;4995390;28;51376;-52
2021/10/14 06:06:10;;;;;;;;;16.50;13.75;;;;;20.62;43.58;102416.34;4998279;28;51675;-53
2021/10/14 06:08:36;;;;;;;;;18.50;17.00;;;;;20.62;43.58;102419.94;5006226;28;51110;-54
2021/10/14 06:11:01;;;;;;;;;15.50;15.25;;;;;20.63;43.50;102423.56;4995790;28;51149;-53
2021/10/14 06:13:26;;;;;;;;;17.75;17.75;;;;;20.63;43.44;102413.41;5006942;28;51105;-49
2021/10/14 06:15:52;;;;;;;;;20.50;18.50;;;;;20.65;43.57;102416.84;4997802;28;52022;-53
2021/10/14 06:18:17;;;;;;;;;17.25;16.75;;;;;20.66;43.55;102412.19;5007754;28;51252;-53
2021/10/14 06:20:42;;;;;;;;;24.75;18.75;;;;;20.67;43.61;102416.66;5017795;28;51155;-53
2021/10/14 06:23:08;;;;;;;;;18.00;17.25;;;;;20.67;43.83;102414.75;5018299;28;51077;-52
2021/10/14 06:25:34;;;;;;;;;22.25;18.75;;;;;20.68;44.25;102421.13;5017663;28;50931;-53
2021/10/14 06:28:00;;;;;;;;;20.75;17.00;;;;;20.69;43.52;102411.81;4999379;28;51231;-54
2021/10/14 06:30:25;;;;;;;;;21.50;18.00;;;;;20.70;43.66;102419.03;4997855;28;51027;-53
2021/10/14 06:32:50;;;;;;;;;22.75;16.50;;;;;20.70;43.68;102422.63;4997856;28;51255;-54
2021/10/14 06:35:16;;;;;;;;;18.25;17.25;;;;;20.71;44.25;102423.50;4997515;28;51985;-54
2021/10/14 06:37:41;;;;;;;;;20.25;14.50;;;;;20.70;43.86;102414.38;4980210;28;51116;-55
2021/10/14 06:40:07;;;;;;;;;17.75;17.00;;;;;20.72;43.97;102423.31;4997917;28;51205;-54
2021/10/14 06:42:33;;;;;;;;;28.00;16.50;;;;;20.73;43.86;102418.66;4997837;28;50924;-54
2021/10/14 06:44:58;;;;;;;;;18.50;17.50;;;;;20.73;44.23;102416.75;4997707;28;50998;-54
2021/10/14 06:47:23;;;;;;;;;22.25;15.50;;;;;20.74;44.11;102420.41;4997475;28;51488;-50
2021/10/14 06:49:49;;;;;;;;;17.25;16.75;;;;;20.74;44.13;102414.88;4997636;28;51096;-52
2021/10/14 06:52:16;;;;;;;;;18.00;16.25;;;;;20.73;44.29;102422.25;4997515;28;50981;-56
2021/10/14 06:54:41;;;;;;;;;16.00;15.75;;;;;20.75;44.16;102420.19;4997279;28;51121;-55
2021/10/14 06:57:07;;;;;;;;;22.25;19.25;;;;;20.78;44.42;102423.63;4996975;28;51078;-57
2021/10/14 06:59:33;;;;;;;;;19.25;15.50;;;;;20.78;44.40;102429.97;4997449;28;51072;-51
2021/10/14 07:01:58;;;;;;;;;21.25;19.50;;;;;20.77;43.88;102417.25;4997472;28;51158;-52
2021/10/14 07:04:24;;;;;;;;;18.75;18.75;;;;;20.77;44.09;102420.00;4996963;28;52790;-54
2021/10/14 07:06:49;;;;;;;;;21.75;18.25;;;;;20.77;44.13;102416.41;4997257;28;51055;-53
2021/10/14 07:09:14;;;;;;;;;17.50;17.00;;;;;20.74;43.65;102417.63;4979517;28;51009;-53
2021/10/14 07:11:44;;;;;;;;;22.50;21.25;;;;;20.72;43.48;102415.03;4997979;28;51360;-54
2021/10/14 07:14:09;;;;;;;;;22.00;19.00;;;;;20.72;43.81;102416.94;5011642;28;51590;-54
2021/10/14 07:16:35;;;;;;;;;26.00;18.50;;;;;20.72;43.77;102416.94;5015930;28;51009;-54
2021/10/14 07:19:00;;;;;;;;;22.25;18.25;;;;;20.72;43.53;102415.03;5016574;28;51647;-55
2021/10/14 07:21:28;;;;;;;;;16.75;15.00;;;;;20.72;43.43;102415.03;5017020;28;50985;-52
2021/10/14 07:23:53;;;;;;;;;17.25;16.50;;;;;20.70;43.36;102411.63;5016403;28;51719;-53
2021/10/14 07:26:18;;;;;;;;;18.25;14.25;;;;;20.70;43.40;102417.13;5015017;28;52198;-54
2021/10/14 07:28:44;;;;;;;;;16.50;16.50;;;;;20.69;43.84;102407.16;5016564;28;50955;-51
2021/10/14 07:31:09;;;;;;;;;15.25;14.50;;;;;20.69;43.74;102418.19;5016953;28;51213;-53
2021/10/14 07:33:34;;;;;;;;;17.50;17.50;;;;;20.69;43.24;102418.19;5016390;28;51691;-52
2021/10/14 07:36:00;;;;;;;;;31.00;27.25;;;;;20.68;43.81;102416.47;5016579;28;51169;-55
2021/10/14 07:38:25;;;;;;;;;33.25;30.50;;;;;20.68;42.63;102423.88;5016404;28;51054;-54
2021/10/14 07:40:50;;;;;;;;;49.25;37.00;;;;;20.66;42.38;102421.31;5016553;28;51204;-53
2021/10/14 07:43:16;;;;;;;;;36.25;31.50;;;;;20.65;42.20;102416.00;5015953;28;50907;-53
2021/10/14 07:45:44;;;;;;;;;37.75;33.25;;;;;20.64;42.44;102425.31;5016622;28;51452;-52
2021/10/14 07:48:10;;;;;;;;;39.75;33.50;;;;;20.60;41.59;102422.03;5016082;28;51101;-54
2021/10/14 07:50:36;;;;;;;;;45.75;37.50;;;;;20.58;41.86;102429.63;5016460;28;51194;-52
2021/10/14 07:53:09;;;;;;;;;45.25;37.00;;;;;20.55;41.90;102419.00;5015748;28;52121;-54
2021/10/14 07:55:34;;;;;;;;;46.75;34.25;;;;;20.52;41.92;102430.38;5015919;28;51156;-54
2021/10/14 07:57:59;;;;;;;;;44.25;35.75;;;;;20.50;41.72;102429.69;5015849;28;51160;-55
2021/10/14 08:00:25;;;;;;;;;41.75;35.25;;;;;20.48;41.35;102415.28;5016083;28;51013;-54
2021/10/14 08:02:50;;;;;;;;;37.75;33.50;;;;;20.45;41.63;102418.41;5015529;28;51875;-52
2021/10/14 08:05:17;;;;;;;;;31.50;29.50;;;;;20.42;41.68;102422.34;5015929;28;51143;-55
2021/10/14 08:07:44;;;;;;;;;33.25;29.50;;;;;20.41;41.45;102419.75;5015974;28;51077;-60
2021/10/14 08:10:10;;;;;;;;;40.00;31.00;;;;;20.39;41.57;102422.69;5016091;28;50976;-53
2021/10/14 08:12:36;;;;;;;;;37.50;33.75;;;;;20.38;41.34;102422.88;5013511;28;51137;-54
2021/10/14 08:15:02;;;;;;;;;45.00;34.50;;;;;20.36;41.18;102422.22;4996210;28;51120;-51
2021/10/14 08:17:28;;;;;;;;;33.00;31.00;;;;;20.34;41.36;102422.41;4995660;28;51169;-54
2021/10/14 08:19:53;;;;;;;;;36.00;31.00;;;;;20.34;40.85;102421.56;4996245;28;51397;-52
2021/10/14 08:22:19;;;;;;;;;33.25;26.00;;;;;20.32;40.78;102416.22;4995933;28;52166;-54
2021/10/14 08:24:46;;;;;;;;;29.00;28.50;;;;;20.31;40.95;102421.91;4996062;28;51052;-54
2021/10/14 08:27:11;;;;;;;;;33.25;29.75;;;;;20.31;41.22;102416.38;5006174;28;51182;-53
2021/10/14 08:29:36;;;;;;;;;39.75;33.25;;;;;20.29;40.64;102422.09;5015577;28;51093;-53
2021/10/14 08:32:02;;;;;;;;;32.50;28.25;;;;;20.28;40.87;102416.75;5015415;28;52557;-51
2021/10/14 08:34:28;;;;;;;;;37.00;27.75;;;;;20.24;41.00;102416.28;4997627;28;51095;-52
2021/10/14 08:36:53;;;;;;;;;32.75;27.25;;;;;20.23;40.94;102410.97;5015811;28;51093;-52
2021/10/14 08:39:19;;;;;;;;;34.50;31.75;;;;;20.21;41.25;102413.88;5015559;28;51244;-53
2021/10/14 08:41:47;;;;;;;;;34.50;26.75;;;;;20.21;41.98;102408.38;5014929;28;52022;-53
2021/10/14 08:44:20;;;;;;;;;34.00;31.00;;;;;20.21;41.77;102413.03;5015553;28;50990;-52
2021/10/14 08:46:47;;;;;;;;;36.00;30.50;;;;;20.22;41.53;102411.97;5015784;28;51018;-54
2021/10/14 08:49:14;;;;;;;;;32.75;28.00;;;;;20.22;41.53;102414.72;5015628;28;51242;-54
2021/10/14 08:51:40;;;;;;;;;28.75;25.25;;;;;20.23;41.54;102410.97;5015489;28;51878;-53
2021/10/14 08:54:05;;;;;;;;;34.75;29.75;;;;;20.25;41.83;102408.88;5015094;28;51196;-54
2021/10/14 08:56:33;;;;;;;;;33.00;29.75;;;;;20.29;42.03;102412.97;5015180;28;51065;-51
2021/10/14 08:58:59;;;;;;;;;30.25;26.75;;;;;20.31;41.67;102416.38;5015548;28;51360;-55
2021/10/14 09:01:24;;;;;;;;;30.50;25.75;;;;;20.34;41.41;102411.41;4996896;28;52459;-53
2021/10/14 09:03:52;;;;;;;;;32.00;28.75;;;;;20.38;41.23;102411.88;4996939;28;51026;-54
2021/10/14 09:06:18;;;;;;;;;24.50;22.75;;;;;20.43;41.13;102403.97;5015305;28;51130;-55
2021/10/14 09:08:50;;;;;;;;;24.25;22.00;;;;;20.48;40.96;102404.25;5015210;28;51274;-55
2021/10/14 09:11:16;;;;;;;;;23.75;23.25;;;;;20.54;41.08;102406.28;5014640;28;50975;-55
2021/10/14 09:13:49;;;;;;;;;32.75;23.50;;;;;20.57;40.56;102399.53;5003814;28;51426;-54
2021/10/14 09:16:39;;;;;;;;;24.00;21.00;;;;;20.60;40.50;102401.91;4995447;28;51075;-53
2021/10/14 09:19:12;;;;;;;;;22.00;20.75;;;;;20.65;40.38;102404.97;4993975;28;51142;-53
2021/10/14 09:21:40;;;;;;;;;24.00;20.25;;;;;20.67;40.63;102398.25;4977283;28;52039;-55
2021/10/14 09:24:24;;;;;;;;;21.75;17.00;;;;;20.71;40.62;102396.81;4995031;28;51424;-53
2021/10/14 09:26:50;;;;;;;;;19.75;19.75;;;;;20.76;40.37;102396.28;5003200;28;51118;-54
2021/10/14 09:29:16;;;;;;;;;16.00;12.25;;;;;20.80;40.41;102392.09;5014596;28;51419;-53
2021/10/14 09:31:46;;;;;;;;;17.00;14.25;;;;;20.85;40.56;102388.78;5014188;28;51800;-54
2021/10/14 09:34:25;;;;;;;;;14.75;14.50;;;;;20.89;40.15;102390.13;5014509;28;51278;-54
2021/10/14 09:36:50;;;;;;;;;20.00;16.50;;;;;20.93;40.32;102386.78;4997007;28;51061;-55
2021/10/14 09:39:16;;;;;;;;;16.00;14.25;;;;;20.97;40.22;102387.28;5015897;28;51380;-54
2021/10/14 09:41:43;;;;;;;;;14.50;13.25;;;;;21.02;40.15;102384.78;5017470;28;51152;-54
2021/10/14 09:44:17;;;;;;;;;13.50;12.50;;;;;21.04;39.72;102372.53;5018180;28;51346;-55
2021/10/14 09:46:50;;;;;;;;;14.25;12.00;;;;;21.09;40.02;102383.00;5018338;28;51211;-54
2021/10/14 09:49:28;;;;;;;;;10.25;9.75;;;;;21.13;40.01;102381.56;5018387;28;51042;-56
2021/10/14 09:51:57;;;;;;;;;10.75;8.75;;;;;21.17;39.66;102379.31;5017989;28;51595;-56
2021/10/14 09:54:23;;;;;;;;;10.50;9.00;;;;;21.21;39.99;102375.97;5017684;28;51221;-55
2021/10/14 09:56:49;;;;;;;;;13.50;9.75;;;;;21.25;39.46;102373.69;5017872;28;51147;-54
2021/10/14 09:59:14;;;;;;;;;11.75;9.50;;;;;21.28;39.43;102365.94;5018137;28;51018;-56
2021/10/14 10:01:41;;;;;;;;;8.50;8.50;;;;;21.31;39.28;102368.31;5017834;28;52137;-55
2021/10/14 10:04:07;;;;;;;;;11.75;9.75;;;;;21.35;39.62;102367.91;5017765;28;51427;-52
2021/10/14 10:06:34;;;;;;;;;12.75;9.25;;;;;21.38;39.38;102367.53;5017705;28;51109;-55
2021/10/14 10:09:14;;;;;;;;;10.75;9.25;;;;;21.40;39.58;102360.78;5017766;28;51285;-54
2021/10/14 10:11:43;;;;;;;;;11.00;9.25;;;;;21.43;39.61;102356.78;5017639;28;51802;-54
2021/10/14 10:14:09;;;;;;;;;13.50;9.50;;;;;21.45;39.12;102347.25;5006608;28;51356;-55
2021/10/14 10:16:34;;;;;;;;;13.75;11.25;;;;;21.47;38.86;102355.38;4997564;28;51041;-53
2021/10/14 10:19:00;;;;;;;;;10.75;10.00;;;;;21.50;39.28;102349.47;4997964;28;50966;-55
2021/10/14 10:21:28;;;;;;;;;7.75;7.50;;;;;21.53;39.18;102344.41;4997562;28;51871;-55
2021/10/14 10:23:54;;;;;;;;;10.75;10.75;;;;;21.55;38.82;102339.53;4997689;28;51481;-52
2021/10/14 10:26:37;;;;;;;;;12.50;10.50;;;;;21.58;38.92;102335.56;5001397;28;51584;-53
2021/10/14 10:29:15;;;;;;;;;11.50;10.75;;;;;21.60;39.19;102333.47;5017464;28;51217;-54
2021/10/14 10:31:50;;;;;;;;;9.50;9.25;;;;;21.62;38.78;102331.38;5017261;28;52069;-53
2021/10/14 10:37:22;;;;;;;;;11.75;11.50;;;;;21.65;39.13;102325.44;5017217;28;51063;-53
2021/10/14 10:39:54;;;;;;;;;12.50;9.00;;;;;21.67;38.89;102325.25;5017506;28;51109;-50
2021/10/14 10:42:40;;;;;;;;;12.25;10.75;;;;;21.68;38.92;102319.56;5016736;28;51919;-55
2021/10/14 10:45:16;;;;;;;;;11.25;10.50;;;;;21.70;38.95;102314.69;5017296;28;51428;-54
2021/10/14 10:47:54;;;;;;;;;9.00;9.00;;;;;21.71;38.79;102310.03;5016903;28;51082;-54
2021/10/14 10:50:24;;;;;;;;;12.50;11.50;;;;;21.72;38.39;102320.88;5017262;28;51174;-55
2021/10/14 10:53:13;;;;;;;;;17.75;10.25;;;;;21.73;38.68;102310.69;5016549;28;51827;-56
2021/10/14 10:55:42;;;;;;;;;9.00;8.75;;;;;21.74;38.37;102318.75;5016701;28;51024;-54
2021/10/14 10:58:10;;;;;;;;;10.75;9.25;;;;;21.75;38.46;102311.34;5017246;28;51012;-55
2021/10/14 11:00:39;;;;;;;;;8.00;8.00;;;;;21.75;38.42;102308.59;5017171;28;51300;-53
2021/10/14 11:03:14;;;;;;;;;9.50;9.50;;;;;21.76;38.28;102305.63;5016468;28;51715;-54
2021/10/14 11:05:43;;;;;;;;;9.75;8.75;;;;;21.77;38.37;102301.81;5016625;28;51110;-53
2021/10/14 11:08:10;;;;;;;;;9.50;9.50;;;;;21.79;38.31;102298.88;5016712;28;51532;-53
2021/10/14 11:10:35;;;;;;;;;14.25;9.50;;;;;21.80;38.26;102295.94;5016416;28;51052;-53